createdAt,value
2019-06-08T00:00:20.715Z,1000.73
2019-06-08T00:01:20.594Z,1000.56
2019-06-08T00:02:20.591Z,1000.43
2019-06-08T00:03:20.441Z,1000.42
2019-06-08T00:04:20.590Z,1000.44
2019-06-08T00:05:20.934Z,1000.44
2019-06-08T00:06:19.315Z,1000.37
2019-06-08T00:07:20.794Z,1000.35
2019-06-08T00:08:19.309Z,1000.32
2019-06-08T00:09:20.867Z,1000.36
2019-06-08T00:10:22.758Z,1000.44
2019-06-08T00:11:21.159Z,1000.42
2019-06-08T00:12:19.251Z,1000.43
2019-06-08T00:13:19.759Z,1000.48
2019-06-08T00:14:21.387Z,1000.51
2019-06-08T00:15:20.293Z,1000.63
2019-06-08T00:16:19.760Z,1000.72
2019-06-08T00:17:37.059Z,1000.79
2019-06-08T00:18:21.432Z,1000.77
2019-06-08T00:19:19.420Z,1000.80
2019-06-08T00:20:21.764Z,1000.85
2019-06-08T00:21:19.672Z,1000.83
2019-06-08T00:22:19.774Z,1000.81
2019-06-08T00:23:20.087Z,1000.85
2019-06-08T00:24:19.872Z,1000.89
2019-06-08T00:25:20.789Z,1000.90
2019-06-08T00:26:20.069Z,1000.97
2019-06-08T00:27:20.207Z,1000.95
2019-06-08T00:28:20.318Z,1000.92
2019-06-08T00:29:20.278Z,1000.97
2019-06-08T00:30:19.040Z,1000.96
2019-06-08T00:31:20.090Z,1000.93
2019-06-08T00:32:20.349Z,1000.85
2019-06-08T00:33:19.060Z,1000.85
2019-06-08T00:34:19.007Z,1000.84
2019-06-08T00:35:19.086Z,1000.89
2019-06-08T00:36:18.990Z,1000.89
2019-06-08T00:37:19.033Z,1000.89
2019-06-08T00:38:18.971Z,1000.93
2019-06-08T00:39:19.237Z,1001.00
2019-06-08T00:40:18.979Z,1001.04
2019-06-08T00:41:20.678Z,1001.00
2019-06-08T00:42:19.326Z,1001.04
2019-06-08T00:43:19.183Z,1001.04
2019-06-08T00:44:19.242Z,1000.96
2019-06-08T00:45:20.019Z,1000.99
2019-06-08T00:46:19.345Z,1001.05
2019-06-08T00:47:18.933Z,1001.06
2019-06-08T00:48:19.543Z,1001.04
2019-06-08T00:49:18.860Z,1001.03
2019-06-08T00:50:18.945Z,1001.02
2019-06-08T00:51:19.121Z,1001.03
2019-06-08T00:52:19.328Z,1000.97
2019-06-08T00:53:19.760Z,1001.02
2019-06-08T00:54:19.308Z,1001.08
2019-06-08T00:55:19.470Z,1001.11
2019-06-08T00:56:19.442Z,1001.06
2019-06-08T00:57:19.681Z,1001.03
2019-06-08T00:58:20.364Z,1001.08
2019-06-08T00:59:19.939Z,1001.08
2019-06-08T01:00:20.283Z,1001.12
2019-06-08T01:01:20.782Z,1001.12
2019-06-08T01:02:18.710Z,1001.09
2019-06-08T01:03:19.613Z,1001.05
2019-06-08T01:04:18.700Z,1001.13
2019-06-08T01:05:19.871Z,1001.08
2019-06-08T01:06:18.867Z,1001.11
2019-06-08T01:07:19.875Z,1001.13
2019-06-08T01:08:20.219Z,1001.13
2019-06-08T01:09:18.629Z,1001.09
2019-06-08T01:10:19.227Z,1001.16
2019-06-08T01:11:18.692Z,1001.15
2019-06-08T01:12:18.740Z,1001.18
2019-06-08T01:13:18.839Z,1001.18
2019-06-08T01:14:18.932Z,1001.22
2019-06-08T01:15:23.543Z,1001.25
2019-06-08T01:16:20.835Z,1001.17
2019-06-08T01:17:19.309Z,1001.22
2019-06-08T01:18:20.725Z,1001.18
2019-06-08T01:19:19.178Z,1001.24
2019-06-08T01:20:19.471Z,1001.28
2019-06-08T01:21:19.425Z,1001.29
2019-06-08T01:22:19.498Z,1001.35
2019-06-08T01:23:19.515Z,1001.33
2019-06-08T01:24:19.675Z,1001.34
2019-06-08T01:25:20.117Z,1001.30
2019-06-08T01:26:19.697Z,1001.31
2019-06-08T01:27:19.869Z,1001.36
2019-06-08T01:28:19.850Z,1001.33
2019-06-08T01:29:18.433Z,1001.33
2019-06-08T01:30:18.431Z,1001.34
2019-06-08T01:31:18.403Z,1001.31
2019-06-08T01:32:18.425Z,1001.36
2019-06-08T01:33:18.416Z,1001.32
2019-06-08T01:34:18.420Z,1001.30
2019-06-08T01:35:18.358Z,1001.35
2019-06-08T01:36:18.348Z,1001.38
2019-06-08T01:37:18.628Z,1001.38
2019-06-08T01:38:18.358Z,1001.34
2019-06-08T01:39:18.331Z,1001.30
2019-06-08T01:40:18.360Z,1001.23
2019-06-08T01:41:18.298Z,1001.20
2019-06-08T01:42:18.287Z,1001.24
2019-06-08T01:43:18.286Z,1001.23
2019-06-08T01:44:19.639Z,1001.26
2019-06-08T01:45:18.262Z,1001.29
2019-06-08T01:46:18.278Z,1001.33
2019-06-08T01:47:18.239Z,1001.37
2019-06-08T01:48:20.335Z,1001.42
2019-06-08T01:49:18.217Z,1001.41
2019-06-08T01:50:18.209Z,1001.39
2019-06-08T01:51:18.521Z,1001.36
2019-06-08T01:52:18.225Z,1001.37
2019-06-08T01:53:18.174Z,1001.35
2019-06-08T01:54:18.427Z,1001.34
2019-06-08T01:55:18.164Z,1001.38
2019-06-08T01:56:18.138Z,1001.30
2019-06-08T01:57:18.129Z,1001.27
2019-06-08T01:58:19.046Z,1001.21
2019-06-08T01:59:18.108Z,1001.18
2019-06-08T02:01:40.096Z,1001.16
2019-06-08T02:02:39.483Z,1001.16
2019-06-08T02:03:39.474Z,1001.13
2019-06-08T02:04:39.456Z,1001.10
2019-06-08T02:05:39.497Z,1001.14
2019-06-08T02:06:39.437Z,1001.17
2019-06-08T02:07:39.766Z,1001.18
2019-06-08T02:08:39.434Z,1001.22
2019-06-08T02:09:39.405Z,1001.26
2019-06-08T02:10:39.395Z,1001.32
2019-06-08T02:11:39.417Z,1001.28
2019-06-08T02:12:39.378Z,1001.31
2019-06-08T02:13:39.411Z,1001.27
2019-06-08T02:14:39.636Z,1001.22
2019-06-08T02:15:39.345Z,1001.23
2019-06-08T02:16:39.406Z,1001.21
2019-06-08T02:17:39.335Z,1001.16
2019-06-08T02:18:50.553Z,1001.12
2019-06-08T02:19:40.345Z,1001.10
2019-06-08T02:20:39.401Z,1001.10
2019-06-08T02:21:39.567Z,1001.19
2019-06-08T02:22:39.439Z,1001.30
2019-06-08T02:23:39.681Z,1001.38
2019-06-08T02:24:39.619Z,1001.40
2019-06-08T02:25:39.622Z,1001.33
2019-06-08T02:26:39.767Z,1001.30
2019-06-08T02:27:39.765Z,1001.28
2019-06-08T02:28:40.195Z,1001.27
2019-06-08T02:29:39.942Z,1001.24
2019-06-08T02:30:41.672Z,1001.23
2019-06-08T02:31:39.737Z,1001.27
2019-06-08T02:32:40.575Z,1001.24
2019-06-08T02:33:40.472Z,1001.28
2019-06-08T02:34:40.627Z,1001.27
2019-06-08T02:35:39.437Z,1001.27
2019-06-08T02:36:40.713Z,1001.34
2019-06-08T02:37:39.966Z,1001.28
2019-06-08T02:38:39.705Z,1001.35
2019-06-08T02:39:39.991Z,1001.37
2019-06-08T02:40:40.224Z,1001.40
2019-06-08T02:41:40.001Z,1001.42
2019-06-08T02:42:40.220Z,1001.40
2019-06-08T02:43:40.301Z,1001.33
2019-06-08T02:44:40.641Z,1001.30
2019-06-08T02:45:40.478Z,1001.26
2019-06-08T02:46:40.401Z,1001.26
2019-06-08T02:47:40.921Z,1001.26
2019-06-08T02:49:00.120Z,1001.24
2019-06-08T02:49:40.049Z,1001.21
2019-06-08T02:50:39.056Z,1001.25
2019-06-08T02:51:38.971Z,1001.24
2019-06-08T02:52:40.812Z,1001.30
2019-06-08T02:53:38.961Z,1001.26
2019-06-08T02:54:39.813Z,1001.30
2019-06-08T02:55:39.508Z,1001.28
2019-06-08T02:56:41.034Z,1001.36
2019-06-08T02:57:39.876Z,1001.38
2019-06-08T02:58:40.819Z,1001.49
2019-06-08T02:59:40.935Z,1001.45
2019-06-08T03:00:39.531Z,1001.38
2019-06-08T03:01:40.633Z,1001.44
2019-06-08T03:02:40.458Z,1001.45
2019-06-08T03:03:40.267Z,1001.44
2019-06-08T03:04:40.763Z,1001.42
2019-06-08T03:05:40.461Z,1001.53
2019-06-08T03:06:41.151Z,1001.58
2019-06-08T03:07:41.208Z,1001.60
2019-06-08T03:08:41.193Z,1001.57
2019-06-08T03:09:38.793Z,1001.61
2019-06-08T03:10:39.328Z,1001.60
2019-06-08T03:11:39.271Z,1001.52
2019-06-08T03:12:40.366Z,1001.47
2019-06-08T03:13:40.356Z,1001.49
2019-06-08T03:14:39.687Z,1001.63
2019-06-08T03:15:40.824Z,1001.72
2019-06-08T03:16:41.108Z,1001.76
2019-06-08T03:17:40.134Z,1001.74
2019-06-08T03:18:40.088Z,1001.83
2019-06-08T03:19:40.098Z,1001.84
2019-06-08T03:20:40.103Z,1001.82
2019-06-08T03:21:40.381Z,1001.86
2019-06-08T03:22:41.219Z,1001.83
2019-06-08T03:23:39.364Z,1001.87
2019-06-08T03:24:38.845Z,1001.86
2019-06-08T03:25:47.276Z,1001.93
2019-06-08T03:26:41.406Z,1001.95
2019-06-08T03:27:39.283Z,1001.99
2019-06-08T03:28:39.946Z,1002.07
2019-06-08T03:29:39.051Z,1002.11
2019-06-08T03:30:45.466Z,1002.09
2019-06-08T03:31:47.791Z,1002.09
2019-06-08T03:32:47.302Z,1002.17
2019-06-08T03:33:49.170Z,1002.07
2019-06-08T03:34:45.993Z,1002.08
2019-06-08T03:35:50.955Z,1002.02
2019-06-08T03:36:49.850Z,1001.87
2019-06-08T03:37:40.026Z,1001.80
2019-06-08T03:38:40.236Z,1001.82
2019-06-08T03:39:38.929Z,1001.80
2019-06-08T03:40:40.401Z,1001.76
2019-06-08T03:41:40.282Z,1001.76
2019-06-08T03:42:38.434Z,1001.74
2019-06-08T03:43:40.713Z,1001.77
2019-06-08T03:44:38.516Z,1001.87
2019-06-08T03:45:38.434Z,1001.82
2019-06-08T03:46:38.858Z,1001.76
2019-06-08T03:47:39.166Z,1001.77
2019-06-08T03:48:40.064Z,1001.84
2019-06-08T03:49:48.780Z,1001.93
2019-06-08T03:50:40.231Z,1001.87
2019-06-08T03:51:41.816Z,1001.92
2019-06-08T03:52:39.860Z,1001.93
2019-06-08T03:53:40.040Z,1001.99
2019-06-08T03:54:40.489Z,1001.99
2019-06-08T03:55:40.219Z,1002.08
2019-06-08T03:56:40.115Z,1002.03
2019-06-08T03:57:40.315Z,1002.04
2019-06-08T03:58:38.979Z,1002.01
2019-06-08T03:59:38.731Z,1002.02
2019-06-08T04:00:38.325Z,1002.05
2019-06-08T04:01:39.784Z,1002.22
2019-06-08T04:02:39.795Z,1002.17
2019-06-08T04:03:39.998Z,1002.14
2019-06-08T04:04:39.815Z,1002.08
2019-06-08T04:05:40.239Z,1002.10
2019-06-08T04:06:39.758Z,1002.17
2019-06-08T04:07:39.806Z,1002.20
2019-06-08T04:08:40.229Z,1002.18
2019-06-08T04:09:39.811Z,1002.28
2019-06-08T04:10:39.723Z,1002.34
2019-06-08T04:11:39.958Z,1002.31
2019-06-08T04:12:39.742Z,1002.40
2019-06-08T04:13:39.766Z,1002.40
2019-06-08T04:14:39.733Z,1002.40
2019-06-08T04:15:40.153Z,1002.40
2019-06-08T04:16:40.201Z,1002.36
2019-06-08T04:17:39.689Z,1002.40
2019-06-08T04:18:38.673Z,1002.47
2019-06-08T04:19:39.635Z,1002.41
2019-06-08T04:20:38.115Z,1002.33
2019-06-08T04:21:38.035Z,1002.34
2019-06-08T04:22:38.052Z,1002.32
2019-06-08T04:23:40.294Z,1002.27
2019-06-08T04:24:38.106Z,1002.17
2019-06-08T04:25:38.373Z,1002.14
2019-06-08T04:26:38.543Z,1002.09
2019-06-08T04:27:38.503Z,1002.11
2019-06-08T04:28:38.306Z,1002.16
2019-06-08T04:29:39.469Z,1002.28
2019-06-08T04:30:38.687Z,1002.24
2019-06-08T04:31:39.602Z,1002.25
2019-06-08T04:32:38.578Z,1002.30
2019-06-08T04:33:37.985Z,1002.24
2019-06-08T04:34:38.715Z,1002.29
2019-06-08T04:35:38.235Z,1002.34
2019-06-08T04:36:38.947Z,1002.30
2019-06-08T04:37:38.403Z,1002.33
2019-06-08T04:38:39.033Z,1002.42
2019-06-08T04:39:38.387Z,1002.35
2019-06-08T04:40:39.428Z,1002.32
2019-06-08T04:41:38.513Z,1002.42
2019-06-08T04:42:39.329Z,1002.40
2019-06-08T04:43:40.002Z,1002.46
2019-06-08T04:44:38.503Z,1002.42
2019-06-08T04:45:38.726Z,1002.39
2019-06-08T04:46:38.236Z,1002.39
2019-06-08T04:47:38.463Z,1002.48
2019-06-08T04:48:38.641Z,1002.44
2019-06-08T04:49:38.496Z,1002.41
2019-06-08T04:50:38.701Z,1002.42
2019-06-08T04:51:38.854Z,1002.41
2019-06-08T04:52:38.884Z,1002.35
2019-06-08T04:53:38.547Z,1002.34
2019-06-08T04:54:38.950Z,1002.35
2019-06-08T04:55:38.811Z,1002.39
2019-06-08T04:56:38.580Z,1002.40
2019-06-08T04:57:39.400Z,1002.47
2019-06-08T04:58:39.812Z,1002.48
2019-06-08T04:59:38.984Z,1002.54
2019-06-08T05:00:39.087Z,1002.46
2019-06-08T05:01:38.856Z,1002.45
2019-06-08T05:02:39.357Z,1002.43
2019-06-08T05:03:39.053Z,1002.47
2019-06-08T05:04:38.902Z,1002.41
2019-06-08T05:05:39.168Z,1002.45
2019-06-08T05:06:38.987Z,1002.39
2019-06-08T05:07:39.149Z,1002.45
2019-06-08T05:08:38.920Z,1002.49
2019-06-08T05:09:39.001Z,1002.48
2019-06-08T05:10:39.084Z,1002.51
2019-06-08T05:11:38.942Z,1002.56
2019-06-08T05:12:39.060Z,1002.57
2019-06-08T05:13:39.043Z,1002.57
2019-06-08T05:14:38.986Z,1002.61
2019-06-08T05:15:38.988Z,1002.62
2019-06-08T05:16:39.007Z,1002.56
2019-06-08T05:17:39.137Z,1002.63
2019-06-08T05:18:39.117Z,1002.66
2019-06-08T05:19:39.132Z,1002.64
2019-06-08T05:20:39.309Z,1002.70
2019-06-08T05:21:37.406Z,1002.68
2019-06-08T05:22:37.394Z,1002.66
2019-06-08T05:23:39.254Z,1002.71
2019-06-08T05:24:37.366Z,1002.78
2019-06-08T05:25:38.993Z,1002.74
2019-06-08T05:26:37.346Z,1002.74
2019-06-08T05:27:37.344Z,1002.69
2019-06-08T05:28:37.325Z,1002.79
2019-06-08T05:29:37.327Z,1002.78
2019-06-08T05:30:37.316Z,1002.78
2019-06-08T05:31:37.708Z,1002.82
2019-06-08T05:32:37.291Z,1002.81
2019-06-08T05:33:37.274Z,1002.82
2019-06-08T05:34:37.266Z,1002.89
2019-06-08T05:35:37.258Z,1002.88
2019-06-08T05:36:37.243Z,1002.77
2019-06-08T05:37:37.286Z,1002.84
2019-06-08T05:38:37.517Z,1002.83
2019-06-08T05:39:37.208Z,1002.82
2019-06-08T05:40:37.290Z,1002.82
2019-06-08T05:41:37.276Z,1002.85
2019-06-08T05:42:37.177Z,1002.75
2019-06-08T05:43:37.215Z,1002.79
2019-06-08T05:44:37.158Z,1002.78
2019-06-08T05:45:37.435Z,1002.82
2019-06-08T05:46:37.143Z,1002.83
2019-06-08T05:47:37.133Z,1002.82
2019-06-08T05:48:37.595Z,1002.70
2019-06-08T05:49:37.155Z,1002.68
2019-06-08T05:50:37.098Z,1002.77
2019-06-08T05:51:37.094Z,1002.86
2019-06-08T05:52:37.077Z,1002.78
2019-06-08T05:53:37.083Z,1002.82
2019-06-08T05:54:37.055Z,1002.84
2019-06-08T05:55:37.091Z,1002.93
2019-06-08T05:56:37.035Z,1002.92
2019-06-08T05:57:37.022Z,1002.92
2019-06-08T05:58:37.005Z,1002.92
2019-06-08T05:59:37.007Z,1002.96
2019-06-08T06:00:37.067Z,1003.00
2019-06-08T06:01:37.015Z,1003.02
2019-06-08T06:02:36.975Z,1002.98
2019-06-08T06:03:36.965Z,1003.02
2019-06-08T06:04:37.230Z,1003.03
2019-06-08T06:05:36.935Z,1003.01
2019-06-08T06:06:36.965Z,1003.04
2019-06-08T06:07:37.021Z,1003.18
2019-06-08T06:08:37.626Z,1003.13
2019-06-08T06:09:36.894Z,1003.08
2019-06-08T06:10:37.173Z,1003.21
2019-06-08T06:11:36.879Z,1003.08
2019-06-08T06:12:36.865Z,1003.11
2019-06-08T06:13:36.918Z,1003.11
2019-06-08T06:14:37.040Z,1003.22
2019-06-08T06:15:36.843Z,1003.21
2019-06-08T06:16:36.827Z,1003.24
2019-06-08T06:17:36.814Z,1003.23
2019-06-08T06:18:36.796Z,1003.16
2019-06-08T06:19:36.824Z,1003.23
2019-06-08T06:20:36.789Z,1003.38
2019-06-08T06:21:36.766Z,1003.32
2019-06-08T06:22:37.154Z,1003.27
2019-06-08T06:23:36.744Z,1003.20
2019-06-08T06:24:36.736Z,1003.23
2019-06-08T06:25:36.765Z,1003.28
2019-06-08T06:26:36.724Z,1003.28
2019-06-08T06:27:36.715Z,1003.35
2019-06-08T06:28:36.705Z,1003.34
2019-06-08T06:29:36.683Z,1003.39
2019-06-08T06:30:36.683Z,1003.46
2019-06-08T06:31:37.267Z,1003.42
2019-06-08T06:32:36.655Z,1003.40
2019-06-08T06:33:36.645Z,1003.38
2019-06-08T06:34:36.914Z,1003.36
2019-06-08T06:35:36.631Z,1003.41
2019-06-08T06:36:36.627Z,1003.41
2019-06-08T06:37:36.634Z,1003.51
2019-06-08T06:38:36.597Z,1003.48
2019-06-08T06:39:36.574Z,1003.52
2019-06-08T06:40:36.571Z,1003.46
2019-06-08T06:41:36.557Z,1003.51
2019-06-08T06:42:36.553Z,1003.54
2019-06-08T06:43:36.573Z,1003.63
2019-06-08T06:44:36.600Z,1003.71
2019-06-08T06:45:36.526Z,1003.70
2019-06-08T06:46:36.506Z,1003.71
2019-06-08T06:47:36.507Z,1003.70
2019-06-08T06:48:36.483Z,1003.69
2019-06-08T06:49:36.517Z,1003.75
2019-06-08T06:50:36.462Z,1003.75
2019-06-08T06:51:36.454Z,1003.73
2019-06-08T06:52:36.799Z,1003.72
2019-06-08T06:53:36.434Z,1003.69
2019-06-08T06:54:36.421Z,1003.77
2019-06-08T06:55:36.463Z,1003.77
2019-06-08T06:56:36.403Z,1003.78
2019-06-08T06:57:36.906Z,1003.77
2019-06-08T06:58:36.376Z,1003.88
2019-06-08T06:59:36.371Z,1003.95
2019-06-08T07:00:36.355Z,1003.89
2019-06-08T07:01:36.496Z,1003.90
2019-06-08T07:02:36.785Z,1003.94
2019-06-08T07:03:36.459Z,1003.92
2019-06-08T07:04:36.514Z,1003.93
2019-06-08T07:05:36.792Z,1003.98
2019-06-08T07:06:36.527Z,1004.06
2019-06-08T07:07:36.783Z,1004.01
2019-06-08T07:08:36.283Z,1004.02
2019-06-08T07:09:36.272Z,1004.15
2019-06-08T07:10:36.267Z,1004.22
2019-06-08T07:11:36.243Z,1004.04
2019-06-08T07:12:36.650Z,1004.07
2019-06-08T07:13:36.352Z,1004.08
2019-06-08T07:14:36.213Z,1004.11
2019-06-08T07:15:41.459Z,1004.28
2019-06-08T07:16:37.182Z,1004.34
2019-06-08T07:17:36.174Z,1004.33
2019-06-08T07:18:36.200Z,1004.51
2019-06-08T07:19:37.833Z,1004.26
2019-06-08T07:20:36.200Z,1004.37
2019-06-08T07:21:41.640Z,1004.25
2019-06-08T07:22:38.074Z,1004.27
2019-06-08T07:23:36.113Z,1004.34
2019-06-08T07:24:36.122Z,1004.17
2019-06-08T07:25:36.161Z,1004.33
2019-06-08T07:26:36.092Z,1004.26
2019-06-08T07:27:36.073Z,1004.23
2019-06-08T07:28:36.074Z,1004.32
2019-06-08T07:29:36.081Z,1004.35
2019-06-08T07:30:36.145Z,1004.30
2019-06-08T07:31:36.075Z,1004.34
2019-06-08T07:32:36.035Z,1004.38
2019-06-08T07:33:36.753Z,1004.37
2019-06-08T07:34:36.013Z,1004.42
2019-06-08T07:35:36.003Z,1004.44
2019-06-08T07:36:36.011Z,1004.40
2019-06-08T07:37:36.509Z,1004.56
2019-06-08T07:38:35.952Z,1004.42
2019-06-08T07:39:35.951Z,1004.43
2019-06-08T07:40:35.953Z,1004.43
2019-06-08T07:41:35.962Z,1004.49
2019-06-08T07:42:35.968Z,1004.58
2019-06-08T07:43:36.765Z,1004.57
2019-06-08T07:44:35.963Z,1004.58
2019-06-08T07:45:35.892Z,1004.52
2019-06-08T07:46:35.872Z,1004.48
2019-06-08T07:47:35.882Z,1004.53
2019-06-08T07:48:35.854Z,1004.57
2019-06-08T07:49:36.297Z,1004.64
2019-06-08T07:50:35.834Z,1004.73
2019-06-08T07:51:35.823Z,1004.66
2019-06-08T07:52:35.860Z,1004.49
2019-06-08T07:53:35.913Z,1004.66
2019-06-08T07:54:35.782Z,1004.67
2019-06-08T07:55:35.882Z,1004.62
2019-06-08T07:56:35.782Z,1004.66
2019-06-08T07:57:35.901Z,1004.78
2019-06-08T07:58:39.524Z,1004.63
2019-06-08T07:59:35.839Z,1004.80
2019-06-08T08:00:35.762Z,1004.72
2019-06-08T08:01:36.749Z,1004.67
2019-06-08T08:02:35.722Z,1004.79
2019-06-08T08:03:35.712Z,1004.75
2019-06-08T08:04:35.683Z,1004.79
2019-06-08T08:05:37.572Z,1004.78
2019-06-08T08:06:35.734Z,1004.72
2019-06-08T08:07:35.712Z,1004.82
2019-06-08T08:08:36.128Z,1004.82
2019-06-08T08:09:35.643Z,1004.82
2019-06-08T08:10:35.648Z,1004.71
2019-06-08T08:11:35.612Z,1004.75
2019-06-08T08:12:35.655Z,1004.73
2019-06-08T08:13:35.817Z,1004.65
2019-06-08T08:14:35.603Z,1004.81
2019-06-08T08:15:36.299Z,1004.69
2019-06-08T08:16:35.565Z,1004.72
2019-06-08T08:17:35.572Z,1004.76
2019-06-08T08:18:35.600Z,1004.66
2019-06-08T08:19:35.743Z,1004.60
2019-06-08T08:20:35.534Z,1004.77
2019-06-08T08:21:37.981Z,1004.66
2019-06-08T08:22:38.010Z,1004.72
2019-06-08T08:23:35.516Z,1004.81
2019-06-08T08:24:35.502Z,1004.73
2019-06-08T08:25:37.898Z,1004.88
2019-06-08T08:26:35.451Z,1004.90
2019-06-08T08:27:37.547Z,1004.88
2019-06-08T08:28:37.530Z,1004.88
2019-06-08T08:29:38.279Z,1004.93
2019-06-08T08:30:37.865Z,1004.94
2019-06-08T08:31:37.425Z,1004.90
2019-06-08T08:32:37.994Z,1004.93
2019-06-08T08:33:37.866Z,1004.97
2019-06-08T08:34:38.163Z,1004.87
2019-06-08T08:35:37.965Z,1004.98
2019-06-08T08:36:38.178Z,1004.99
2019-06-08T08:37:38.090Z,1005.02
2019-06-08T08:38:35.371Z,1005.10
2019-06-08T08:39:37.618Z,1004.93
2019-06-08T08:40:38.589Z,1005.01
2019-06-08T08:41:35.988Z,1005.04
2019-06-08T08:42:38.590Z,1004.99
2019-06-08T08:43:37.715Z,1004.94
2019-06-08T08:44:37.794Z,1004.98
2019-06-08T08:45:37.301Z,1005.03
2019-06-08T08:46:35.281Z,1004.97
2019-06-08T08:47:38.669Z,1005.03
2019-06-08T08:48:37.591Z,1004.94
2019-06-08T08:49:37.965Z,1004.99
2019-06-08T08:50:38.822Z,1005.02
2019-06-08T08:51:37.670Z,1005.00
2019-06-08T08:52:40.858Z,1004.98
2019-06-08T08:53:37.377Z,1005.07
2019-06-08T08:54:37.554Z,1005.11
2019-06-08T08:55:37.814Z,1005.07
2019-06-08T08:56:38.145Z,1005.06
2019-06-08T08:57:38.541Z,1005.09
2019-06-08T08:58:38.074Z,1005.18
2019-06-08T08:59:35.303Z,1005.22
2019-06-08T09:00:38.272Z,1005.14
2019-06-08T09:01:38.211Z,1005.15
2019-06-08T09:02:37.304Z,1005.27
2019-06-08T09:03:35.071Z,1005.29
2019-06-08T09:04:38.044Z,1005.25
2019-06-08T09:05:38.191Z,1005.42
2019-06-08T09:06:37.947Z,1005.13
2019-06-08T09:07:38.245Z,1005.32
2019-06-08T09:08:37.570Z,1005.26
2019-06-08T09:09:38.667Z,1005.66
2019-06-08T09:10:38.110Z,1005.29
2019-06-08T09:11:38.376Z,1005.17
2019-06-08T09:12:37.643Z,1005.20
2019-06-08T09:13:37.715Z,1005.22
2019-06-08T09:14:35.502Z,1005.35
2019-06-08T09:15:37.895Z,1005.27
2019-06-08T09:16:38.366Z,1005.34
2019-06-08T09:17:35.292Z,1005.32
2019-06-08T09:18:37.494Z,1005.31
2019-06-08T09:19:38.391Z,1005.25
2019-06-08T09:20:38.122Z,1005.42
2019-06-08T09:21:38.211Z,1005.28
2019-06-08T09:22:50.214Z,1005.29
2019-06-08T09:23:37.790Z,1005.30
2019-06-08T09:24:35.153Z,1005.30
2019-06-08T09:25:37.381Z,1005.43
2019-06-08T09:26:38.060Z,1005.43
2019-06-08T09:27:35.291Z,1005.47
2019-06-08T09:28:38.673Z,1005.39
2019-06-08T09:29:38.569Z,1005.37
2019-06-08T09:30:35.296Z,1005.50
2019-06-08T09:31:39.037Z,1005.60
2019-06-08T09:32:38.029Z,1005.56
2019-06-08T09:33:35.626Z,1005.47
2019-06-08T09:34:35.303Z,1005.55
2019-06-08T09:35:37.739Z,1005.58
2019-06-08T09:36:37.578Z,1005.60
2019-06-08T09:37:40.293Z,1005.59
2019-06-08T09:38:35.219Z,1005.67
2019-06-08T09:39:38.339Z,1005.54
2019-06-08T09:40:38.385Z,1005.63
2019-06-08T09:41:37.909Z,1005.66
2019-06-08T09:42:34.691Z,1005.48
2019-06-08T09:43:34.665Z,1005.59
2019-06-08T09:44:37.681Z,1005.66
2019-06-08T09:45:38.120Z,1005.75
2019-06-08T09:46:38.367Z,1005.68
2019-06-08T09:47:38.091Z,1005.68
2019-06-08T09:48:38.181Z,1005.70
2019-06-08T09:49:37.515Z,1005.57
2019-06-08T09:50:38.741Z,1005.65
2019-06-08T09:51:37.757Z,1005.62
2019-06-08T09:52:40.695Z,1005.67
2019-06-08T09:53:41.472Z,1005.67
2019-06-08T09:54:38.434Z,1005.66
2019-06-08T09:55:38.216Z,1005.74
2019-06-08T09:56:37.810Z,1005.79
2019-06-08T09:57:38.322Z,1005.78
2019-06-08T09:58:34.515Z,1005.84
2019-06-08T09:59:35.059Z,1005.75
2019-06-08T10:00:37.904Z,1005.75
2019-06-08T10:01:35.354Z,1005.79
2019-06-08T10:02:35.222Z,1005.83
2019-06-08T10:03:38.951Z,1005.87
2019-06-08T10:04:38.535Z,1005.93
2019-06-08T10:05:38.858Z,1005.85
2019-06-08T10:06:37.773Z,1005.88
2019-06-08T10:07:38.541Z,1005.91
2019-06-08T10:08:38.562Z,1005.83
2019-06-08T10:09:37.990Z,1005.81
2019-06-08T10:10:35.272Z,1005.93
2019-06-08T10:11:37.847Z,1005.89
2019-06-08T10:12:38.231Z,1006.01
2019-06-08T10:13:35.396Z,1006.04
2019-06-08T10:14:38.037Z,1006.03
2019-06-08T10:15:34.693Z,1006.05
2019-06-08T10:16:38.203Z,1005.89
2019-06-08T10:17:37.779Z,1006.00
2019-06-08T10:18:38.485Z,1005.99
2019-06-08T10:19:35.462Z,1006.11
2019-06-08T10:20:38.341Z,1006.12
2019-06-08T10:21:42.753Z,1005.99
2019-06-08T10:22:37.473Z,1006.14
2019-06-08T10:23:38.690Z,1006.11
2019-06-08T10:24:38.733Z,1006.09
2019-06-08T10:25:42.602Z,1006.03
2019-06-08T10:26:37.651Z,1006.09
2019-06-08T10:27:34.247Z,1006.17
2019-06-08T10:28:34.435Z,1006.08
2019-06-08T10:29:38.178Z,1006.21
2019-06-08T10:30:38.282Z,1006.23
2019-06-08T10:31:39.906Z,1006.41
2019-06-08T10:32:38.163Z,1006.28
2019-06-08T10:33:40.524Z,1006.28
2019-06-08T10:34:38.792Z,1006.19
2019-06-08T10:35:38.238Z,1006.26
2019-06-08T10:36:40.571Z,1006.29
2019-06-08T10:37:38.415Z,1006.32
2019-06-08T10:38:40.915Z,1006.26
2019-06-08T10:39:37.937Z,1006.26
2019-06-08T10:40:38.331Z,1006.24
2019-06-08T10:41:35.689Z,1006.27
2019-06-08T10:42:39.857Z,1006.30
2019-06-08T10:43:38.308Z,1006.27
2019-06-08T10:44:38.238Z,1006.28
2019-06-08T10:45:36.222Z,1006.34
2019-06-08T10:46:40.359Z,1006.32
2019-06-08T10:47:37.727Z,1006.19
2019-06-08T10:48:37.491Z,1006.31
2019-06-08T10:49:34.819Z,1006.34
2019-06-08T10:50:35.942Z,1006.34
2019-06-08T10:51:34.727Z,1006.46
2019-06-08T10:52:38.980Z,1006.46
2019-06-08T10:53:46.566Z,1006.60
2019-06-08T10:54:37.831Z,1006.39
2019-06-08T10:55:34.060Z,1006.52
2019-06-08T10:56:38.396Z,1006.49
2019-06-08T10:57:37.409Z,1006.45
2019-06-08T10:58:34.393Z,1006.44
2019-06-08T10:59:36.661Z,1006.46
2019-06-08T11:00:38.696Z,1006.47
2019-06-08T11:01:35.126Z,1006.49
2019-06-08T11:02:34.207Z,1006.40
2019-06-08T11:03:38.838Z,1006.44
2019-06-08T11:04:38.634Z,1006.51
2019-06-08T11:05:34.298Z,1006.61
2019-06-08T11:06:34.294Z,1006.48
2019-06-08T11:07:38.056Z,1006.53
2019-06-08T11:08:38.856Z,1006.52
2019-06-08T11:09:38.176Z,1006.48
2019-06-08T11:10:38.263Z,1006.55
2019-06-08T11:11:34.528Z,1006.63
2019-06-08T11:12:34.694Z,1006.53
2019-06-08T11:13:34.512Z,1006.61
2019-06-08T11:14:34.103Z,1006.60
2019-06-08T11:15:33.775Z,1006.62
2019-06-08T11:16:34.359Z,1006.65
2019-06-08T11:17:33.811Z,1006.60
2019-06-08T11:18:33.839Z,1006.57
2019-06-08T11:19:34.613Z,1006.57
2019-06-08T11:20:34.249Z,1006.55
2019-06-08T11:21:33.799Z,1006.55
2019-06-08T11:22:33.622Z,1006.66
2019-06-08T11:23:34.524Z,1006.64
2019-06-08T11:24:34.614Z,1006.59
2019-06-08T11:25:33.583Z,1006.56
2019-06-08T11:26:34.318Z,1006.79
2019-06-08T11:27:33.614Z,1006.75
2019-06-08T11:28:33.630Z,1006.76
2019-06-08T11:29:34.030Z,1006.76
2019-06-08T11:30:33.570Z,1006.71
2019-06-08T11:31:33.527Z,1006.72
2019-06-08T11:32:33.794Z,1006.79
2019-06-08T11:33:38.958Z,1006.75
2019-06-08T11:34:37.705Z,1006.87
2019-06-08T11:35:34.004Z,1006.83
2019-06-08T11:36:34.521Z,1006.81
2019-06-08T11:37:33.968Z,1006.77
2019-06-08T11:38:34.574Z,1006.87
2019-06-08T11:39:33.873Z,1006.80
2019-06-08T11:40:33.792Z,1006.88
2019-06-08T11:41:33.455Z,1006.88
2019-06-08T11:42:33.419Z,1006.84
2019-06-08T11:43:34.374Z,1006.93
2019-06-08T11:44:33.585Z,1006.92
2019-06-08T11:45:33.819Z,1006.91
2019-06-08T11:46:34.601Z,1006.92
2019-06-08T11:47:34.400Z,1006.89
2019-06-08T11:48:33.641Z,1006.88
2019-06-08T11:49:33.434Z,1006.88
2019-06-08T11:50:33.553Z,1006.95
2019-06-08T11:51:33.390Z,1006.93
2019-06-08T11:52:33.331Z,1007.01
2019-06-08T11:53:33.291Z,1006.94
2019-06-08T11:54:37.475Z,1006.98
2019-06-08T11:55:34.271Z,1006.98
2019-06-08T11:56:33.892Z,1007.04
2019-06-08T11:57:34.489Z,1007.03
2019-06-08T11:58:33.309Z,1006.93
2019-06-08T11:59:34.000Z,1007.02
2019-06-08T12:00:33.215Z,1007.06
2019-06-08T12:01:33.669Z,1007.05
2019-06-08T12:02:33.958Z,1006.96
2019-06-08T12:03:33.225Z,1007.01
2019-06-08T12:04:48.450Z,1006.91
2019-06-08T12:05:33.875Z,1007.01
2019-06-08T12:06:33.170Z,1006.87